createdAt,value
2023-04-18T00:01:44.528Z,5.13
2023-04-18T00:04:13.485Z,5.60
2023-04-18T00:06:40.819Z,5.27
2023-04-18T00:09:07.661Z,4.80
2023-04-18T00:11:35.008Z,4.97
2023-04-18T00:14:03.235Z,5.13
2023-04-18T00:16:30.138Z,5.00
2023-04-18T00:18:57.475Z,4.93
2023-04-18T00:21:25.589Z,5.50
2023-04-18T00:23:52.678Z,5.30
2023-04-18T00:26:19.747Z,5.20
2023-04-18T00:28:48.110Z,5.27
2023-04-18T00:31:14.927Z,5.30
2023-04-18T00:33:41.657Z,5.93
2023-04-18T00:36:08.743Z,5.80
2023-04-18T00:38:35.979Z,4.93
2023-04-18T00:41:02.730Z,4.97
2023-04-18T00:43:29.391Z,5.20
2023-04-18T00:45:57.202Z,5.47
2023-04-18T00:48:24.677Z,5.83
2023-04-18T00:50:51.377Z,5.83
2023-04-18T00:53:18.636Z,5.50
2023-04-18T00:55:45.818Z,5.30
2023-04-18T00:58:12.555Z,6.10
2023-04-18T01:00:39.356Z,6.13
2023-04-18T01:03:08.371Z,5.50
2023-04-18T01:05:36.262Z,6.10
2023-04-18T01:08:04.271Z,5.77
2023-04-18T01:10:36.024Z,5.60
2023-04-18T01:13:16.225Z,5.80
2023-04-18T01:15:44.381Z,5.83
2023-04-18T01:18:13.082Z,5.50
2023-04-18T01:20:41.605Z,5.93
2023-04-18T01:23:10.433Z,5.63
2023-04-18T01:25:37.492Z,6.07
2023-04-18T01:28:06.087Z,6.10
2023-04-18T01:30:34.192Z,6.00
2023-04-18T01:33:02.222Z,6.13
2023-04-18T01:35:29.075Z,6.07
2023-04-18T01:37:57.258Z,6.10
2023-04-18T01:40:24.790Z,6.30
2023-04-18T01:42:53.350Z,6.40
2023-04-18T01:45:20.425Z,6.20
2023-04-18T01:47:47.300Z,6.43
2023-04-18T01:50:14.439Z,6.13
2023-04-18T01:52:43.032Z,6.00
2023-04-18T01:55:10.174Z,5.90
2023-04-18T01:57:37.088Z,6.27
2023-04-18T02:00:06.476Z,5.80
2023-04-18T02:02:41.764Z,5.57
2023-04-18T02:05:09.316Z,6.13
2023-04-18T02:07:40.153Z,6.00
2023-04-18T02:10:08.977Z,6.30
2023-04-18T02:12:35.699Z,5.80
2023-04-18T02:15:02.549Z,5.97
2023-04-18T02:17:30.734Z,5.87
2023-04-18T02:19:57.547Z,5.90
2023-04-18T02:22:24.198Z,6.47
2023-04-18T02:24:50.928Z,6.00
2023-04-18T02:27:18.169Z,6.27
2023-04-18T02:29:44.894Z,6.47
2023-04-18T02:32:11.703Z,6.67
2023-04-18T02:34:38.492Z,6.70
2023-04-18T02:37:05.337Z,6.27
2023-04-18T02:39:32.354Z,6.50
2023-04-18T02:41:59.149Z,6.57
2023-04-18T02:44:25.892Z,6.20
2023-04-18T02:46:52.725Z,5.77
2023-04-18T02:49:19.791Z,6.67
2023-04-18T02:51:47.280Z,6.10
2023-04-18T02:54:15.238Z,6.80
2023-04-18T02:56:54.121Z,6.40
2023-04-18T02:59:50.352Z,6.50
2023-04-18T03:02:29.052Z,7.10
2023-04-18T03:05:01.494Z,7.00
2023-04-18T03:07:28.486Z,7.80
2023-04-18T03:09:55.983Z,7.40
2023-04-18T03:12:27.233Z,7.10
2023-04-18T03:14:53.974Z,6.80
2023-04-18T03:17:21.325Z,7.37
2023-04-18T03:19:49.316Z,6.70
2023-04-18T03:22:18.774Z,7.07
2023-04-18T03:25:11.735Z,6.90
2023-04-18T03:27:49.773Z,6.77
2023-04-18T03:30:18.317Z,6.90
2023-04-18T03:32:52.836Z,7.37
2023-04-18T03:35:19.706Z,7.00
2023-04-18T03:37:46.370Z,7.17
2023-04-18T03:40:19.715Z,6.70
2023-04-18T03:42:48.431Z,7.00
2023-04-18T03:45:16.552Z,6.43
2023-04-18T03:47:45.439Z,7.07
2023-04-18T03:50:12.718Z,7.50
2023-04-18T03:52:41.240Z,6.97
2023-04-18T03:55:08.440Z,7.23
2023-04-18T03:57:35.193Z,7.83
2023-04-18T04:00:07.867Z,7.20
2023-04-18T04:02:42.635Z,7.80
2023-04-18T04:05:12.874Z,7.70
2023-04-18T04:07:39.604Z,7.60
2023-04-18T04:10:07.207Z,7.23
2023-04-18T04:12:33.929Z,7.20
2023-04-18T04:15:01.234Z,7.47
2023-04-18T04:17:28.674Z,7.27
2023-04-18T04:19:55.435Z,7.83
2023-04-18T04:22:22.564Z,7.90
2023-04-18T04:24:49.729Z,7.47
2023-04-18T04:27:22.187Z,8.10
2023-04-18T04:29:49.873Z,8.23
2023-04-18T04:32:20.271Z,7.77
2023-04-18T04:34:47.190Z,8.00
2023-04-18T04:37:19.921Z,8.20
2023-04-18T04:40:00.825Z,7.50
2023-04-18T04:42:46.949Z,7.57
2023-04-18T04:45:20.280Z,7.93
2023-04-18T04:47:47.545Z,8.40
2023-04-18T04:50:15.702Z,9.03
2023-04-18T04:52:42.944Z,8.63
2023-04-18T04:55:10.793Z,7.80
2023-04-18T04:57:37.516Z,8.30
2023-04-18T05:00:20.701Z,8.47
2023-04-18T05:02:48.474Z,8.23
2023-04-18T05:05:15.751Z,8.67
2023-04-18T05:07:42.458Z,7.87
2023-04-18T05:10:09.715Z,8.07
2023-04-18T05:12:36.423Z,8.37
2023-04-18T05:15:03.526Z,8.30
2023-04-18T05:17:30.339Z,8.37
2023-04-18T05:19:57.071Z,8.27
2023-04-18T05:22:23.839Z,8.07
2023-04-18T05:24:50.555Z,8.43
2023-04-18T05:27:18.191Z,9.00
2023-04-18T05:29:46.567Z,8.50
2023-04-18T05:32:13.345Z,8.27
2023-04-18T05:34:40.069Z,8.00
2023-04-18T05:37:06.726Z,8.13
2023-04-18T05:39:33.437Z,8.47
2023-04-18T05:42:00.744Z,8.53
2023-04-18T05:44:27.664Z,8.30
2023-04-18T05:46:54.458Z,8.47
2023-04-18T05:49:21.403Z,8.90
2023-04-18T05:51:49.828Z,8.27
2023-04-18T05:54:16.970Z,8.63
2023-04-18T05:56:43.773Z,8.83
2023-04-18T05:59:10.800Z,8.83
2023-04-18T06:01:37.562Z,8.60
2023-04-18T06:04:04.592Z,8.87
2023-04-18T06:06:31.987Z,9.57
2023-04-18T06:08:58.905Z,9.30
2023-04-18T06:11:25.860Z,9.13
2023-04-18T06:13:55.575Z,8.80
2023-04-18T06:16:22.465Z,9.00
2023-04-18T06:18:49.198Z,9.10
2023-04-18T06:21:16.105Z,8.97
2023-04-18T06:23:42.887Z,8.73
2023-04-18T06:26:09.663Z,8.83
2023-04-18T06:28:36.442Z,8.47
2023-04-18T06:31:10.527Z,9.17
2023-04-18T06:33:37.727Z,8.20
2023-04-18T06:36:08.794Z,8.37
2023-04-18T06:38:35.523Z,8.90
2023-04-18T06:41:02.309Z,8.07
2023-04-18T06:43:28.932Z,8.83
2023-04-18T06:45:56.630Z,9.40
2023-04-18T06:48:23.625Z,9.40
2023-04-18T06:50:50.279Z,8.60
2023-04-18T06:53:17.037Z,8.37
2023-04-18T06:55:43.784Z,9.00
2023-04-18T06:58:13.571Z,9.27
2023-04-18T07:00:40.448Z,8.80
2023-04-18T07:03:11.444Z,8.53
2023-04-18T07:05:41.587Z,9.37
2023-04-18T07:08:08.301Z,9.03
2023-04-18T07:10:35.067Z,9.40
2023-04-18T07:13:01.849Z,8.73
2023-04-18T07:15:28.785Z,9.83
2023-04-18T07:17:55.478Z,9.50
2023-04-18T07:20:22.330Z,9.47
2023-04-18T07:22:48.919Z,8.73
2023-04-18T07:25:15.620Z,9.63
2023-04-18T07:27:42.354Z,9.70
2023-04-18T07:30:09.556Z,9.83
2023-04-18T07:32:36.275Z,8.97
2023-04-18T07:35:03.482Z,9.60
2023-04-18T07:37:30.251Z,9.83
2023-04-18T07:39:56.952Z,9.80
2023-04-18T07:42:23.764Z,9.23
2023-04-18T07:44:50.481Z,9.43
2023-04-18T07:47:22.172Z,9.77
2023-04-18T07:49:49.184Z,9.13
2023-04-18T07:52:15.820Z,9.77
2023-04-18T07:54:42.483Z,8.70
2023-04-18T07:57:09.245Z,9.93
2023-04-18T07:59:36.007Z,8.90
2023-04-18T08:02:02.992Z,9.70
2023-04-18T08:04:30.620Z,9.47
2023-04-18T08:06:57.495Z,10.20
2023-04-18T08:09:24.286Z,8.70
2023-04-18T08:11:50.913Z,9.17
2023-04-18T08:14:20.527Z,9.43
2023-04-18T08:16:47.189Z,9.30
2023-04-18T08:19:14.125Z,8.07
2023-04-18T08:21:40.962Z,8.83
2023-04-18T08:24:07.775Z,9.10
2023-04-18T08:26:34.542Z,9.10
2023-04-18T08:29:01.166Z,9.43
2023-04-18T08:31:27.867Z,9.63
2023-04-18T08:33:54.532Z,8.80
2023-04-18T08:36:21.457Z,9.00
2023-04-18T08:38:48.247Z,8.23
2023-04-18T08:41:20.631Z,8.50
2023-04-18T08:43:50.953Z,8.70
2023-04-18T08:46:18.977Z,8.70
2023-04-18T08:48:49.420Z,8.73
2023-04-18T08:51:16.055Z,8.93
2023-04-18T08:53:44.666Z,8.53
2023-04-18T08:56:14.640Z,8.40
2023-04-18T08:58:41.352Z,8.23
2023-04-18T09:01:08.803Z,8.47
2023-04-18T09:03:41.490Z,8.20
2023-04-18T09:06:19.377Z,8.30
2023-04-18T09:08:58.719Z,8.67
2023-04-18T09:11:31.582Z,9.13
2023-04-18T09:14:02.315Z,9.17
2023-04-18T09:16:46.602Z,9.43
2023-04-18T09:19:18.097Z,9.40
2023-04-18T09:21:48.708Z,8.50
2023-04-18T09:24:23.975Z,8.50
2023-04-18T09:26:53.722Z,9.83
2023-04-18T09:29:22.492Z,9.10
2023-04-18T09:32:00.848Z,9.13
2023-04-18T09:34:28.652Z,9.90
2023-04-18T09:37:13.116Z,9.23
2023-04-18T09:39:42.752Z,9.83
2023-04-18T09:42:10.690Z,9.90
2023-04-18T09:44:38.623Z,9.60
2023-04-18T09:47:07.785Z,10.73
2023-04-18T09:49:35.146Z,10.33
2023-04-18T09:52:06.370Z,10.03
2023-04-18T09:54:37.804Z,10.10
2023-04-18T09:57:08.776Z,9.63
2023-04-18T09:59:47.720Z,11.23
2023-04-18T10:02:22.592Z,10.33
2023-04-18T10:04:51.321Z,10.40
2023-04-18T10:07:18.212Z,10.10
2023-04-18T10:09:49.187Z,10.63
2023-04-18T10:12:17.293Z,10.10
2023-04-18T10:14:44.435Z,10.97
2023-04-18T10:17:11.774Z,10.97
2023-04-18T10:19:41.982Z,11.47
2023-04-18T10:22:08.889Z,11.13
2023-04-18T10:24:54.236Z,11.53
2023-04-18T10:27:49.156Z,11.57
2023-04-18T10:30:16.905Z,11.40
2023-04-18T10:32:45.945Z,11.30
2023-04-18T10:35:12.797Z,11.83
2023-04-18T10:37:52.274Z,11.60
2023-04-18T10:40:33.477Z,10.70
2023-04-18T10:43:00.408Z,10.63
2023-04-18T10:45:29.642Z,10.57
2023-04-18T10:48:25.956Z,9.80
2023-04-18T10:51:18.711Z,10.70
2023-04-18T10:53:52.881Z,9.90
2023-04-18T10:56:19.684Z,9.87
2023-04-18T10:58:50.976Z,11.10
2023-04-18T11:01:32.634Z,10.47
2023-04-18T11:04:00.216Z,10.27
2023-04-18T11:06:27.644Z,10.43
2023-04-18T11:09:13.906Z,10.77
2023-04-18T11:11:41.701Z,10.33
2023-04-18T11:14:08.868Z,10.60
2023-04-18T11:16:35.656Z,10.17
2023-04-18T11:19:21.264Z,10.13
2023-04-18T11:21:48.052Z,10.10
2023-04-18T11:24:24.275Z,10.23
2023-04-18T11:26:55.950Z,10.00
2023-04-18T11:29:23.021Z,10.30
2023-04-18T11:31:52.128Z,10.70
2023-04-18T11:34:18.918Z,10.63
2023-04-18T11:36:52.045Z,9.53
2023-04-18T11:39:19.318Z,10.20
2023-04-18T11:41:50.466Z,10.00
2023-04-18T11:44:18.514Z,9.70
2023-04-18T11:46:45.156Z,9.80
2023-04-18T11:49:31.869Z,10.17
2023-04-18T11:51:59.509Z,9.93
2023-04-18T11:54:43.813Z,10.47
2023-04-18T11:57:22.715Z,9.73
2023-04-18T11:59:59.772Z,9.83
2023-04-18T12:02:38.941Z,10.43
2023-04-18T12:05:06.369Z,10.73
2023-04-18T12:07:34.762Z,9.87
2023-04-18T12:10:01.995Z,10.47
2023-04-18T12:12:28.878Z,9.63
2023-04-18T12:15:03.226Z,9.50
2023-04-18T12:17:31.278Z,9.80
2023-04-18T12:20:02.009Z,10.17
2023-04-18T12:22:44.285Z,9.53
2023-04-18T12:25:27.007Z,9.33
2023-04-18T12:27:58.094Z,9.70
2023-04-18T12:30:29.974Z,9.77
2023-04-18T12:33:01.656Z,8.93
2023-04-18T12:35:30.418Z,9.00
2023-04-18T12:37:59.306Z,9.67
2023-04-18T12:40:26.884Z,9.47
2023-04-18T12:42:54.953Z,9.77
2023-04-18T12:45:23.029Z,9.47
2023-04-18T12:47:51.138Z,9.67
2023-04-18T12:50:23.293Z,9.60
2023-04-18T12:52:52.316Z,9.20
2023-04-18T12:55:19.124Z,9.30
2023-04-18T12:57:45.804Z,9.83
2023-04-18T13:00:13.562Z,9.40
2023-04-18T13:02:42.556Z,9.73
2023-04-18T13:05:11.394Z,9.20
2023-04-18T13:07:40.448Z,8.80
2023-04-18T13:10:12.391Z,8.37
2023-04-18T13:12:40.631Z,9.67
2023-04-18T13:15:08.816Z,9.00
2023-04-18T13:17:36.841Z,9.27
2023-04-18T13:20:06.334Z,8.77
2023-04-18T13:22:33.849Z,8.53
2023-04-18T13:25:00.546Z,8.97
2023-04-18T13:27:27.271Z,9.37
2023-04-18T13:29:55.009Z,8.93
2023-04-18T13:32:21.789Z,8.70
2023-04-18T13:34:49.013Z,9.03
2023-04-18T13:37:15.785Z,8.07
2023-04-18T13:39:42.870Z,8.30
2023-04-18T13:42:09.921Z,8.60
2023-04-18T13:44:38.110Z,9.17
2023-04-18T13:47:06.823Z,8.37
2023-04-18T13:49:35.000Z,7.77
2023-04-18T13:52:02.315Z,7.83
2023-04-18T13:54:30.346Z,8.47
2023-04-18T13:56:58.441Z,7.30
2023-04-18T13:59:32.381Z,7.83
2023-04-18T14:01:59.219Z,7.10
2023-04-18T14:04:26.606Z,7.90
2023-04-18T14:06:53.378Z,7.57
2023-04-18T14:09:20.127Z,7.40
2023-04-18T14:11:47.474Z,7.50
2023-04-18T14:14:14.674Z,7.47
2023-04-18T14:16:41.407Z,7.23
2023-04-18T14:19:08.060Z,7.37
2023-04-18T14:21:34.778Z,7.60
2023-04-18T14:24:01.519Z,7.57
2023-04-18T14:26:28.180Z,7.40
2023-04-18T14:28:54.854Z,7.63
2023-04-18T14:31:22.259Z,7.03
2023-04-18T14:33:49.018Z,7.70
2023-04-18T14:36:18.020Z,7.37
2023-04-18T14:38:48.461Z,8.60
2023-04-18T14:41:15.329Z,7.37
2023-04-18T14:43:42.029Z,7.07
2023-04-18T14:46:13.606Z,7.57
2023-04-18T14:48:40.292Z,7.17
2023-04-18T14:51:07.779Z,7.10
2023-04-18T14:53:34.798Z,6.03
2023-04-18T14:56:01.422Z,6.23
2023-04-18T14:58:28.057Z,5.60
2023-04-18T15:00:56.861Z,6.57
2023-04-18T15:03:23.678Z,5.80
2023-04-18T15:05:50.589Z,5.63
2023-04-18T15:08:17.282Z,5.70
2023-04-18T15:10:44.530Z,5.50
2023-04-18T15:13:11.517Z,5.80
2023-04-18T15:15:39.720Z,5.33
2023-04-18T15:18:08.136Z,5.67
2023-04-18T15:20:36.906Z,5.43
2023-04-18T15:23:03.671Z,5.00
2023-04-18T15:25:30.931Z,5.40
2023-04-18T15:27:58.373Z,4.27
2023-04-18T15:30:25.600Z,4.37
2023-04-18T15:32:53.938Z,4.20
2023-04-18T15:35:21.003Z,4.30
2023-04-18T15:37:49.025Z,3.70
2023-04-18T15:40:18.796Z,3.90
2023-04-18T15:42:45.676Z,4.30
2023-04-18T15:45:12.336Z,3.23
2023-04-18T15:47:39.232Z,4.80
2023-04-18T15:50:06.908Z,4.20
2023-04-18T15:52:33.770Z,3.50
2023-04-18T15:55:00.896Z,3.20
2023-04-18T15:57:29.615Z,3.60
2023-04-18T15:59:56.687Z,3.17
2023-04-18T16:02:23.370Z,3.23
2023-04-18T16:04:50.240Z,2.87
2023-04-18T16:07:17.018Z,3.07
2023-04-18T16:09:43.641Z,3.00
2023-04-18T16:12:10.282Z,3.20
2023-04-18T16:14:36.948Z,2.80
2023-04-18T16:17:03.693Z,3.00
2023-04-18T16:19:30.674Z,3.20
2023-04-18T16:21:57.588Z,3.33
2023-04-18T16:24:25.568Z,3.10
2023-04-18T16:26:53.413Z,3.00
2023-04-18T16:29:20.370Z,3.17
2023-04-18T16:31:47.656Z,3.00
2023-04-18T16:34:15.809Z,3.10
2023-04-18T16:36:42.533Z,3.10
2023-04-18T16:39:09.195Z,3.37
2023-04-18T16:41:35.866Z,3.20
2023-04-18T16:44:02.514Z,3.10
2023-04-18T16:46:32.051Z,2.97
2023-04-18T16:48:59.423Z,2.80
2023-04-18T16:51:26.877Z,3.00
2023-04-18T16:53:53.536Z,2.90
2023-04-18T16:56:20.204Z,3.20
2023-04-18T16:58:46.860Z,2.80
2023-04-18T17:01:13.516Z,3.40
2023-04-18T17:03:42.149Z,3.27
2023-04-18T17:06:08.829Z,3.73
2023-04-18T17:08:35.951Z,4.10
2023-04-18T17:11:02.724Z,3.27
2023-04-18T17:13:31.376Z,3.37
2023-04-18T17:15:58.318Z,3.70
2023-04-18T17:18:25.169Z,3.47
2023-04-18T17:20:52.635Z,3.60
2023-04-18T17:23:19.455Z,3.40
2023-04-18T17:25:46.254Z,3.20
2023-04-18T17:28:13.930Z,3.40
2023-04-18T17:30:41.893Z,3.20
2023-04-18T17:33:09.458Z,3.47
2023-04-18T17:35:36.120Z,3.40
2023-04-18T17:38:03.367Z,3.53
2023-04-18T17:40:30.173Z,3.80
2023-04-18T17:42:56.836Z,3.23
2023-04-18T17:45:23.985Z,3.53
2023-04-18T17:47:50.855Z,3.87
2023-04-18T17:50:17.974Z,3.70
2023-04-18T17:52:46.243Z,3.77
2023-04-18T17:55:13.137Z,3.60
2023-04-18T17:57:39.998Z,3.53
2023-04-18T18:00:11.051Z,4.33
2023-04-18T18:02:42.305Z,3.77
2023-04-18T18:05:13.689Z,4.30
2023-04-18T18:07:43.098Z,3.90
2023-04-18T18:10:11.184Z,4.00
2023-04-18T18:12:38.164Z,3.90
2023-04-18T18:15:07.114Z,4.20
2023-04-18T18:17:33.825Z,4.20
2023-04-18T18:20:00.627Z,4.17
2023-04-18T18:22:27.920Z,4.47
2023-04-18T18:24:54.801Z,4.00
2023-04-18T18:27:21.482Z,3.93
2023-04-18T18:29:49.962Z,4.17
2023-04-18T18:32:16.698Z,4.47
2023-04-18T18:34:43.372Z,4.00
2023-04-18T18:37:09.979Z,4.37
2023-04-18T18:39:36.681Z,3.97
2023-04-18T18:42:03.349Z,4.03
2023-04-18T18:44:30.561Z,4.10
2023-04-18T18:46:58.724Z,4.27
2023-04-18T18:49:29.242Z,4.30
2023-04-18T18:51:56.844Z,4.27
2023-04-18T18:54:23.750Z,4.13
2023-04-18T18:56:51.272Z,4.53
2023-04-18T18:59:18.154Z,4.43
2023-04-18T19:01:44.891Z,4.40
2023-04-18T19:04:11.810Z,4.60
2023-04-18T19:06:38.875Z,4.40
2023-04-18T19:09:05.529Z,5.03
2023-04-18T19:11:32.173Z,4.67
2023-04-18T19:13:58.977Z,5.80
2023-04-18T19:16:25.843Z,5.47
2023-04-18T19:18:52.668Z,5.77
2023-04-18T19:21:20.188Z,5.50
2023-04-18T19:23:46.885Z,5.73
2023-04-18T19:26:13.546Z,5.27
2023-04-18T19:28:40.310Z,5.93
2023-04-18T19:31:07.065Z,5.93
2023-04-18T19:33:33.774Z,7.10
2023-04-18T19:36:00.464Z,7.40
2023-04-18T19:38:27.068Z,7.40
2023-04-18T19:40:53.714Z,7.60
2023-04-18T19:43:20.494Z,7.17
2023-04-18T19:45:47.199Z,8.57
2023-04-18T19:48:13.849Z,8.63
2023-04-18T19:50:42.172Z,7.70
2023-04-18T19:53:08.931Z,7.70
2023-04-18T19:55:35.849Z,8.20
2023-04-18T19:58:02.579Z,8.47
2023-04-18T20:00:29.377Z,8.80
2023-04-18T20:02:58.453Z,8.20
2023-04-18T20:05:25.430Z,9.20
2023-04-18T20:07:52.199Z,8.00
2023-04-18T20:10:22.326Z,8.33
2023-04-18T20:12:50.202Z,8.37
2023-04-18T20:15:17.127Z,7.90
2023-04-18T20:17:43.867Z,8.07
2023-04-18T20:20:13.956Z,7.37
2023-04-18T20:22:41.766Z,8.07
2023-04-18T20:25:08.887Z,7.83
2023-04-18T20:27:35.623Z,7.63
2023-04-18T20:30:02.330Z,7.80
2023-04-18T20:32:29.146Z,7.03
2023-04-18T20:34:55.816Z,7.10
2023-04-18T20:37:22.470Z,6.90
2023-04-18T20:39:49.199Z,6.47
2023-04-18T20:42:15.919Z,7.53
2023-04-18T20:44:46.757Z,6.70
2023-04-18T20:47:15.487Z,6.93
2023-04-18T20:49:42.606Z,6.57
2023-04-18T20:52:11.869Z,6.73
2023-04-18T20:54:38.692Z,6.50
2023-04-18T20:57:05.315Z,6.80
2023-04-18T20:59:31.995Z,6.80
2023-04-18T21:01:58.770Z,6.60
2023-04-18T21:04:25.650Z,7.40
2023-04-18T21:06:52.517Z,6.40
2023-04-18T21:09:19.166Z,6.67
2023-04-18T21:11:45.977Z,6.70
2023-04-18T21:14:13.004Z,6.27
2023-04-18T21:16:40.058Z,6.53
2023-04-18T21:19:06.870Z,6.73
2023-04-18T21:21:34.227Z,7.03
2023-04-18T21:24:01.787Z,6.90
2023-04-18T21:26:28.636Z,6.57
2023-04-18T21:29:04.680Z,6.83
2023-04-18T21:31:33.776Z,6.60
2023-04-18T21:34:02.431Z,6.93
2023-04-18T21:36:30.631Z,6.43
2023-04-18T21:38:58.772Z,6.77
2023-04-18T21:41:26.022Z,6.70
2023-04-18T21:43:53.087Z,6.23
2023-04-18T21:46:19.955Z,6.73
2023-04-18T21:48:47.749Z,6.90
2023-04-18T21:51:16.302Z,6.83
2023-04-18T21:53:43.200Z,7.80
2023-04-18T21:56:10.779Z,6.70
2023-04-18T21:58:37.431Z,7.30
2023-04-18T22:01:04.188Z,7.00
2023-04-18T22:03:31.644Z,6.63
2023-04-18T22:05:58.826Z,7.50
2023-04-18T22:08:25.812Z,7.87
2023-04-18T22:10:58.223Z,7.00
2023-04-18T22:13:30.062Z,7.47
2023-04-18T22:15:58.208Z,7.37
2023-04-18T22:18:25.171Z,7.20
2023-04-18T22:20:53.524Z,7.23
2023-04-18T22:23:20.448Z,7.70
2023-04-18T22:25:47.149Z,7.53
2023-04-18T22:28:13.823Z,7.50
2023-04-18T22:30:40.586Z,7.97
2023-04-18T22:33:07.254Z,8.30
2023-04-18T22:35:33.944Z,7.93
2023-04-18T22:38:00.689Z,8.30
2023-04-18T22:40:27.443Z,8.10
2023-04-18T22:42:54.362Z,7.43
2023-04-18T22:45:21.080Z,8.40
2023-04-18T22:47:47.985Z,7.37
2023-04-18T22:50:15.014Z,8.30
2023-04-18T22:52:41.792Z,9.20
2023-04-18T22:55:09.196Z,8.73
2023-04-18T22:57:36.227Z,8.67
2023-04-18T23:00:05.004Z,8.20
2023-04-18T23:02:32.068Z,8.60
2023-04-18T23:04:59.728Z,9.20
2023-04-18T23:07:26.526Z,8.73
2023-04-18T23:09:53.197Z,8.43
2023-04-18T23:12:19.870Z,8.47
2023-04-18T23:14:46.535Z,8.93
2023-04-18T23:17:13.192Z,8.77
2023-04-18T23:19:40.024Z,9.60
2023-04-18T23:22:06.679Z,8.77
2023-04-18T23:24:33.314Z,9.67
2023-04-18T23:26:59.979Z,9.70
2023-04-18T23:29:26.642Z,9.70
2023-04-18T23:31:53.271Z,9.00
2023-04-18T23:34:19.984Z,9.03
2023-04-18T23:36:46.636Z,9.37
2023-04-18T23:39:13.290Z,10.07
2023-04-18T23:41:39.954Z,8.83
2023-04-18T23:44:06.678Z,9.57
2023-04-18T23:46:35.694Z,9.87
2023-04-18T23:49:03.254Z,9.43
2023-04-18T23:51:29.876Z,9.93
2023-04-18T23:53:56.599Z,10.10
2023-04-18T23:56:23.287Z,9.73
2023-04-18T23:58:50.107Z,10.60
